Hauptseite
METAR-TAF:

METAR-TAF

Flughäfen :

Flugplatz Les Eplatures

La Chaux-de-Fonds, Schweiz

Breite: 47-05-03N, Länge: 006-47-37E, Höhe: 1027 m

Beobachtung

Neuester Wetterbericht von vor 8 Minuten, um 04:20 UTC
Windstille
Temperatur 3°C
Luftfeuchtigkeit 93%
Luftdruck 1022 hPa
Sichtweite: 3600 m
Durchbrochene Bewölkung in der Höhe von 600 ft
feuchter Dunst

METAR: LSGC 250420Z AUTO 00000KT 3600 BR BKN006 03/02 Q1022

Zeit: 05:28 (04:28 UTC)

Prognose

Neuester Wetterbericht von vor 14 Stunden und 3 Minuten, um 14:25 UTC
Gültige Prognose vom 24 um 15 UTC bis 24 um 24 UTC
Wind 8 kt aus West/Nordwest
Sichtweite 10 km oder mehr
keine Wolken unter 1500 m und keine Kumulonimbus oder Gewitterwolken
Übergehend zu
vom 24 um 17 UTC bis 24 um 20 UTC
Sichtweite 10 km oder mehr
Aufgelockert bewölkt in der Höhe von 3000 ft

TAF: LSGC 241425Z 2415/2424 30008KT CAVOK BECMG 2417/2420 9999 SCT030

Wetterbeobachtungen und Prognosen von mehr als 4000 Flughäfen (METAR und TAF Bericht).

Die verfügbaren Stationen werden durch gelbe und rote Markierungen auf der Karte dargestellt.

Führen Sie die Maus auf sie, um den Namen der Station zu sehen.

Darauf klicken, um die Beobachtung von Wetterbeobachtungen und Prognosen zu sehen.

Um die Karte zu ändern : klicken Sie auf den grünen Tasten mit einem schwarzen Kreuz Zum Vergrößern, auf den grünen Button mit einem Gedankenstrich zu verkleinern, oder auf die grünen Pfeile für benachbarte Karten.


METAR-TAF: